sensor_id;sensor_type;location;lat;lon;timestamp;P1;durP1;ratioP1;P2;durP2;ratioP2
12135;SDS011;6131;56.420;15.548;2023-02-23T00:01:53;1.50;;;1.40;;
12135;SDS011;6131;56.420;15.548;2023-02-23T00:04:19;1.70;;;1.40;;
12135;SDS011;6131;56.420;15.548;2023-02-23T00:06:45;2.70;;;1.50;;
12135;SDS011;6131;56.420;15.548;2023-02-23T00:09:11;1.53;;;1.20;;
12135;SDS011;6131;56.420;15.548;2023-02-23T00:11:46;1.60;;;1.33;;
12135;SDS011;6131;56.420;15.548;2023-02-23T00:14:12;2.17;;;1.40;;
12135;SDS011;6131;56.420;15.548;2023-02-23T00:16:38;1.90;;;1.47;;
12135;SDS011;6131;56.420;15.548;2023-02-23T00:19:09;2.20;;;1.57;;
12135;SDS011;6131;56.420;15.548;2023-02-23T00:21:36;1.70;;;1.50;;
12135;SDS011;6131;56.420;15.548;2023-02-23T00:24:06;2.43;;;1.47;;
12135;SDS011;6131;56.420;15.548;2023-02-23T00:26:33;2.40;;;1.40;;
12135;SDS011;6131;56.420;15.548;2023-02-23T00:29:01;1.83;;;1.43;;
12135;SDS011;6131;56.420;15.548;2023-02-23T00:31:27;1.93;;;1.40;;
12135;SDS011;6131;56.420;15.548;2023-02-23T00:33:54;1.53;;;1.30;;
12135;SDS011;6131;56.420;15.548;2023-02-23T00:36:21;1.47;;;1.20;;
12135;SDS011;6131;56.420;15.548;2023-02-23T00:38:51;2.43;;;1.37;;
12135;SDS011;6131;56.420;15.548;2023-02-23T00:41:17;1.93;;;1.50;;
12135;SDS011;6131;56.420;15.548;2023-02-23T00:43:52;1.23;;;1.10;;
12135;SDS011;6131;56.420;15.548;2023-02-23T00:46:19;2.13;;;1.10;;
12135;SDS011;6131;56.420;15.548;2023-02-23T00:48:46;1.77;;;1.27;;
12135;SDS011;6131;56.420;15.548;2023-02-23T00:51:13;1.43;;;1.23;;
12135;SDS011;6131;56.420;15.548;2023-02-23T00:53:39;1.40;;;1.13;;
12135;SDS011;6131;56.420;15.548;2023-02-23T00:56:06;1.90;;;0.93;;
12135;SDS011;6131;56.420;15.548;2023-02-23T00:58:32;2.17;;;1.50;;
12135;SDS011;6131;56.420;15.548;2023-02-23T01:00:58;2.63;;;1.57;;
12135;SDS011;6131;56.420;15.548;2023-02-23T01:03:25;1.50;;;1.17;;
12135;SDS011;6131;56.420;15.548;2023-02-23T01:05:51;3.53;;;1.60;;
12135;SDS011;6131;56.420;15.548;2023-02-23T01:08:19;2.30;;;1.40;;
12135;SDS011;6131;56.420;15.548;2023-02-23T01:10:45;2.43;;;1.50;;
12135;SDS011;6131;56.420;15.548;2023-02-23T01:13:17;2.27;;;1.20;;
12135;SDS011;6131;56.420;15.548;2023-02-23T01:15:43;1.20;;;1.10;;
12135;SDS011;6131;56.420;15.548;2023-02-23T01:18:09;3.47;;;1.77;;
12135;SDS011;6131;56.420;15.548;2023-02-23T01:20:36;5.27;;;1.60;;
12135;SDS011;6131;56.420;15.548;2023-02-23T01:23:02;1.93;;;1.60;;
12135;SDS011;6131;56.420;15.548;2023-02-23T01:25:29;1.67;;;1.40;;
12135;SDS011;6131;56.420;15.548;2023-02-23T01:27:55;2.00;;;1.30;;
12135;SDS011;6131;56.420;15.548;2023-02-23T01:30:21;4.10;;;1.47;;
12135;SDS011;6131;56.420;15.548;2023-02-23T01:32:47;2.33;;;1.43;;
12135;SDS011;6131;56.420;15.548;2023-02-23T01:35:13;2.37;;;1.70;;
12135;SDS011;6131;56.420;15.548;2023-02-23T01:37:40;4.17;;;1.50;;
12135;SDS011;6131;56.420;15.548;2023-02-23T01:40:11;5.07;;;1.70;;
12135;SDS011;6131;56.420;15.548;2023-02-23T01:42:40;2.67;;;1.83;;
12135;SDS011;6131;56.420;15.548;2023-02-23T01:45:17;2.20;;;1.40;;
12135;SDS011;6131;56.420;15.548;2023-02-23T01:47:44;3.47;;;1.57;;
12135;SDS011;6131;56.420;15.548;2023-02-23T01:50:11;5.07;;;1.63;;
12135;SDS011;6131;56.420;15.548;2023-02-23T01:52:40;2.40;;;1.97;;
12135;SDS011;6131;56.420;15.548;2023-02-23T01:55:07;2.50;;;1.90;;
12135;SDS011;6131;56.420;15.548;2023-02-23T01:57:37;3.70;;;2.23;;
12135;SDS011;6131;56.420;15.548;2023-02-23T02:00:04;2.60;;;1.90;;
12135;SDS011;6131;56.420;15.548;2023-02-23T02:02:38;2.63;;;1.70;;
12135;SDS011;6131;56.420;15.548;2023-02-23T02:05:04;6.50;;;2.20;;
12135;SDS011;6131;56.420;15.548;2023-02-23T02:07:36;4.00;;;2.67;;
12135;SDS011;6131;56.420;15.548;2023-02-23T02:10:04;3.37;;;2.40;;
12135;SDS011;6131;56.420;15.548;2023-02-23T02:12:48;4.20;;;2.50;;
12135;SDS011;6131;56.420;15.548;2023-02-23T02:15:16;4.77;;;2.60;;
12135;SDS011;6131;56.420;15.548;2023-02-23T02:30:26;8.67;;;3.20;;
12135;SDS011;6131;56.420;15.548;2023-02-23T02:53:44;4.57;;;2.70;;
12135;SDS011;6131;56.420;15.548;2023-02-23T02:56:13;3.80;;;2.60;;
12135;SDS011;6131;56.420;15.548;2023-02-23T02:58:40;3.87;;;2.73;;
12135;SDS011;6131;56.420;15.548;2023-02-23T03:01:08;3.67;;;2.50;;
12135;SDS011;6131;56.420;15.548;2023-02-23T03:03:55;4.67;;;2.60;;
12135;SDS011;6131;56.420;15.548;2023-02-23T03:07:01;5.13;;;2.30;;
12135;SDS011;6131;56.420;15.548;2023-02-23T03:09:52;4.27;;;2.53;;
12135;SDS011;6131;56.420;15.548;2023-02-23T03:12:54;3.87;;;2.70;;
12135;SDS011;6131;56.420;15.548;2023-02-23T03:15:55;4.30;;;2.33;;
12135;SDS011;6131;56.420;15.548;2023-02-23T03:19:04;4.20;;;2.87;;
12135;SDS011;6131;56.420;15.548;2023-02-23T03:24:38;2.93;;;2.20;;
12135;SDS011;6131;56.420;15.548;2023-02-23T03:30:19;4.60;;;2.37;;
12135;SDS011;6131;56.420;15.548;2023-02-23T03:33:08;4.33;;;2.80;;
12135;SDS011;6131;56.420;15.548;2023-02-23T03:41:27;5.23;;;2.70;;
12135;SDS011;6131;56.420;15.548;2023-02-23T03:44:14;4.80;;;3.07;;
12135;SDS011;6131;56.420;15.548;2023-02-23T03:47:00;6.60;;;2.90;;
12135;SDS011;6131;56.420;15.548;2023-02-23T03:49:47;5.33;;;3.00;;
12135;SDS011;6131;56.420;15.548;2023-02-23T03:52:35;5.77;;;2.93;;
12135;SDS011;6131;56.420;15.548;2023-02-23T03:55:22;5.50;;;3.37;;
12135;SDS011;6131;56.420;15.548;2023-02-23T03:58:12;4.40;;;2.83;;
12135;SDS011;6131;56.420;15.548;2023-02-23T04:01:00;4.90;;;2.87;;
12135;SDS011;6131;56.420;15.548;2023-02-23T04:03:46;5.67;;;3.40;;
12135;SDS011;6131;56.420;15.548;2023-02-23T04:06:33;4.33;;;3.10;;
12135;SDS011;6131;56.420;15.548;2023-02-23T04:09:19;5.10;;;3.23;;
12135;SDS011;6131;56.420;15.548;2023-02-23T04:12:12;4.87;;;3.07;;
12135;SDS011;6131;56.420;15.548;2023-02-23T04:17:25;6.03;;;3.50;;
12135;SDS011;6131;56.420;15.548;2023-02-23T04:19:52;6.43;;;3.40;;
12135;SDS011;6131;56.420;15.548;2023-02-23T04:22:19;7.03;;;3.73;;
12135;SDS011;6131;56.420;15.548;2023-02-23T04:24:45;7.77;;;3.37;;
12135;SDS011;6131;56.420;15.548;2023-02-23T04:27:12;5.30;;;3.33;;
12135;SDS011;6131;56.420;15.548;2023-02-23T04:29:38;6.30;;;3.57;;
12135;SDS011;6131;56.420;15.548;2023-02-23T04:32:04;4.93;;;3.30;;
12135;SDS011;6131;56.420;15.548;2023-02-23T04:34:30;7.67;;;3.53;;
12135;SDS011;6131;56.420;15.548;2023-02-23T04:36:56;7.57;;;3.40;;
12135;SDS011;6131;56.420;15.548;2023-02-23T04:39:22;6.20;;;3.47;;
12135;SDS011;6131;56.420;15.548;2023-02-23T04:41:48;5.60;;;3.77;;
12135;SDS011;6131;56.420;15.548;2023-02-23T04:44:14;6.20;;;4.13;;
12135;SDS011;6131;56.420;15.548;2023-02-23T04:46:40;6.37;;;3.93;;
12135;SDS011;6131;56.420;15.548;2023-02-23T04:49:06;8.57;;;4.00;;
12135;SDS011;6131;56.420;15.548;2023-02-23T04:51:32;11.00;;;4.57;;
12135;SDS011;6131;56.420;15.548;2023-02-23T04:53:59;5.57;;;3.80;;
12135;SDS011;6131;56.420;15.548;2023-02-23T04:56:26;8.33;;;4.67;;
12135;SDS011;6131;56.420;15.548;2023-02-23T04:58:52;7.20;;;4.47;;
12135;SDS011;6131;56.420;15.548;2023-02-23T05:01:19;8.20;;;4.10;;
12135;SDS011;6131;56.420;15.548;2023-02-23T05:03:46;10.83;;;4.97;;
12135;SDS011;6131;56.420;15.548;2023-02-23T05:06:13;6.47;;;4.27;;
12135;SDS011;6131;56.420;15.548;2023-02-23T05:08:39;7.43;;;4.50;;
12135;SDS011;6131;56.420;15.548;2023-02-23T05:11:05;6.33;;;3.67;;
12135;SDS011;6131;56.420;15.548;2023-02-23T05:13:31;7.30;;;4.47;;
12135;SDS011;6131;56.420;15.548;2023-02-23T05:15:57;7.37;;;4.40;;
12135;SDS011;6131;56.420;15.548;2023-02-23T05:18:24;6.77;;;4.40;;
12135;SDS011;6131;56.420;15.548;2023-02-23T05:20:50;5.53;;;4.10;;
12135;SDS011;6131;56.420;15.548;2023-02-23T05:23:16;7.40;;;4.60;;
12135;SDS011;6131;56.420;15.548;2023-02-23T05:25:42;7.37;;;4.20;;
12135;SDS011;6131;56.420;15.548;2023-02-23T05:28:08;7.90;;;4.40;;
12135;SDS011;6131;56.420;15.548;2023-02-23T05:30:35;7.70;;;4.57;;
12135;SDS011;6131;56.420;15.548;2023-02-23T05:33:01;8.73;;;5.40;;
12135;SDS011;6131;56.420;15.548;2023-02-23T05:35:27;8.80;;;4.83;;
12135;SDS011;6131;56.420;15.548;2023-02-23T05:37:53;10.00;;;5.03;;
12135;SDS011;6131;56.420;15.548;2023-02-23T05:40:19;7.50;;;5.30;;
12135;SDS011;6131;56.420;15.548;2023-02-23T05:42:45;9.47;;;5.50;;
12135;SDS011;6131;56.420;15.548;2023-02-23T05:45:11;8.57;;;5.20;;
12135;SDS011;6131;56.420;15.548;2023-02-23T05:47:37;8.17;;;5.17;;
12135;SDS011;6131;56.420;15.548;2023-02-23T05:50:07;7.77;;;5.23;;
12135;SDS011;6131;56.420;15.548;2023-02-23T05:52:38;9.43;;;5.70;;
12135;SDS011;6131;56.420;15.548;2023-02-23T05:55:05;9.33;;;5.73;;
12135;SDS011;6131;56.420;15.548;2023-02-23T05:57:32;9.30;;;5.57;;
12135;SDS011;6131;56.420;15.548;2023-02-23T05:59:58;7.73;;;5.17;;
12135;SDS011;6131;56.420;15.548;2023-02-23T06:02:24;8.73;;;5.50;;
12135;SDS011;6131;56.420;15.548;2023-02-23T06:04:50;11.10;;;5.73;;
12135;SDS011;6131;56.420;15.548;2023-02-23T06:07:16;9.07;;;5.17;;
12135;SDS011;6131;56.420;15.548;2023-02-23T06:09:42;8.73;;;6.10;;
12135;SDS011;6131;56.420;15.548;2023-02-23T06:12:08;8.13;;;5.40;;
12135;SDS011;6131;56.420;15.548;2023-02-23T06:14:34;8.93;;;5.90;;
12135;SDS011;6131;56.420;15.548;2023-02-23T06:17:00;9.67;;;5.57;;
12135;SDS011;6131;56.420;15.548;2023-02-23T06:19:26;10.13;;;5.23;;
12135;SDS011;6131;56.420;15.548;2023-02-23T06:21:53;10.07;;;5.80;;
12135;SDS011;6131;56.420;15.548;2023-02-23T06:24:19;7.60;;;5.20;;
12135;SDS011;6131;56.420;15.548;2023-02-23T06:26:45;8.40;;;5.27;;
12135;SDS011;6131;56.420;15.548;2023-02-23T06:29:11;9.10;;;5.67;;
12135;SDS011;6131;56.420;15.548;2023-02-23T06:31:38;8.97;;;6.10;;
12135;SDS011;6131;56.420;15.548;2023-02-23T06:34:04;9.30;;;5.97;;
12135;SDS011;6131;56.420;15.548;2023-02-23T06:36:30;9.50;;;5.80;;
12135;SDS011;6131;56.420;15.548;2023-02-23T06:38:56;10.40;;;6.17;;
12135;SDS011;6131;56.420;15.548;2023-02-23T06:41:23;9.93;;;6.77;;
12135;SDS011;6131;56.420;15.548;2023-02-23T06:43:49;9.90;;;6.50;;
12135;SDS011;6131;56.420;15.548;2023-02-23T06:46:16;9.70;;;6.17;;
12135;SDS011;6131;56.420;15.548;2023-02-23T06:48:42;9.50;;;6.13;;
12135;SDS011;6131;56.420;15.548;2023-02-23T06:51:08;11.10;;;6.40;;
12135;SDS011;6131;56.420;15.548;2023-02-23T06:53:34;10.27;;;6.57;;
12135;SDS011;6131;56.420;15.548;2023-02-23T06:56:00;10.03;;;6.37;;
12135;SDS011;6131;56.420;15.548;2023-02-23T06:58:27;11.03;;;7.17;;
12135;SDS011;6131;56.420;15.548;2023-02-23T07:00:56;12.00;;;6.60;;
12135;SDS011;6131;56.420;15.548;2023-02-23T07:03:23;10.87;;;6.27;;
12135;SDS011;6131;56.420;15.548;2023-02-23T07:05:49;10.50;;;6.43;;
12135;SDS011;6131;56.420;15.548;2023-02-23T07:08:16;10.97;;;6.80;;
12135;SDS011;6131;56.420;15.548;2023-02-23T07:10:43;14.30;;;6.80;;
12135;SDS011;6131;56.420;15.548;2023-02-23T07:13:09;12.10;;;6.37;;
12135;SDS011;6131;56.420;15.548;2023-02-23T07:15:37;14.47;;;7.30;;
12135;SDS011;6131;56.420;15.548;2023-02-23T07:18:03;11.63;;;7.13;;
12135;SDS011;6131;56.420;15.548;2023-02-23T07:20:29;13.33;;;6.97;;
12135;SDS011;6131;56.420;15.548;2023-02-23T07:22:56;11.07;;;7.07;;
12135;SDS011;6131;56.420;15.548;2023-02-23T07:25:22;9.90;;;6.80;;
12135;SDS011;6131;56.420;15.548;2023-02-23T07:27:48;11.37;;;6.90;;
12135;SDS011;6131;56.420;15.548;2023-02-23T07:30:15;12.90;;;7.77;;
12135;SDS011;6131;56.420;15.548;2023-02-23T07:32:42;12.37;;;7.23;;
12135;SDS011;6131;56.420;15.548;2023-02-23T07:35:08;9.50;;;6.40;;
12135;SDS011;6131;56.420;15.548;2023-02-23T07:37:34;12.83;;;6.80;;
12135;SDS011;6131;56.420;15.548;2023-02-23T07:40:00;10.93;;;6.73;;
12135;SDS011;6131;56.420;15.548;2023-02-23T07:42:26;11.57;;;7.27;;
12135;SDS011;6131;56.420;15.548;2023-02-23T07:44:52;12.23;;;7.07;;
12135;SDS011;6131;56.420;15.548;2023-02-23T07:47:18;10.33;;;6.50;;
12135;SDS011;6131;56.420;15.548;2023-02-23T07:49:44;12.40;;;6.83;;
12135;SDS011;6131;56.420;15.548;2023-02-23T07:52:10;13.00;;;7.13;;
12135;SDS011;6131;56.420;15.548;2023-02-23T07:54:36;11.13;;;7.07;;
12135;SDS011;6131;56.420;15.548;2023-02-23T07:57:02;13.83;;;7.47;;
12135;SDS011;6131;56.420;15.548;2023-02-23T07:59:28;10.70;;;6.93;;
12135;SDS011;6131;56.420;15.548;2023-02-23T08:01:56;12.10;;;7.17;;
12135;SDS011;6131;56.420;15.548;2023-02-23T08:04:22;12.27;;;6.87;;
12135;SDS011;6131;56.420;15.548;2023-02-23T08:06:47;9.93;;;7.00;;
12135;SDS011;6131;56.420;15.548;2023-02-23T08:09:14;12.93;;;7.73;;
12135;SDS011;6131;56.420;15.548;2023-02-23T08:11:40;10.10;;;6.83;;
12135;SDS011;6131;56.420;15.548;2023-02-23T08:14:06;11.87;;;7.47;;
12135;SDS011;6131;56.420;15.548;2023-02-23T08:16:32;11.73;;;7.07;;
12135;SDS011;6131;56.420;15.548;2023-02-23T08:18:59;11.17;;;6.47;;
12135;SDS011;6131;56.420;15.548;2023-02-23T08:21:25;11.90;;;7.30;;
12135;SDS011;6131;56.420;15.548;2023-02-23T08:23:53;15.33;;;6.90;;
12135;SDS011;6131;56.420;15.548;2023-02-23T08:26:19;13.50;;;7.47;;
12135;SDS011;6131;56.420;15.548;2023-02-23T08:28:45;13.03;;;6.73;;
12135;SDS011;6131;56.420;15.548;2023-02-23T08:31:12;12.57;;;6.83;;
12135;SDS011;6131;56.420;15.548;2023-02-23T08:33:38;12.43;;;6.90;;
12135;SDS011;6131;56.420;15.548;2023-02-23T08:36:05;13.87;;;7.17;;
12135;SDS011;6131;56.420;15.548;2023-02-23T08:38:31;9.93;;;7.07;;
12135;SDS011;6131;56.420;15.548;2023-02-23T08:41:00;11.17;;;7.30;;
12135;SDS011;6131;56.420;15.548;2023-02-23T08:43:26;11.20;;;7.57;;
12135;SDS011;6131;56.420;15.548;2023-02-23T08:45:52;12.67;;;7.70;;
12135;SDS011;6131;56.420;15.548;2023-02-23T08:48:18;17.10;;;7.43;;
12135;SDS011;6131;56.420;15.548;2023-02-23T08:50:46;10.60;;;7.23;;
12135;SDS011;6131;56.420;15.548;2023-02-23T08:53:14;11.07;;;6.77;;
12135;SDS011;6131;56.420;15.548;2023-02-23T08:55:40;12.77;;;7.10;;
12135;SDS011;6131;56.420;15.548;2023-02-23T08:58:09;12.43;;;8.00;;
12135;SDS011;6131;56.420;15.548;2023-02-23T09:00:36;11.17;;;7.37;;
12135;SDS011;6131;56.420;15.548;2023-02-23T09:03:03;12.73;;;7.30;;
12135;SDS011;6131;56.420;15.548;2023-02-23T09:05:29;12.97;;;7.57;;
12135;SDS011;6131;56.420;15.548;2023-02-23T09:07:55;12.57;;;7.97;;
12135;SDS011;6131;56.420;15.548;2023-02-23T09:10:21;13.97;;;7.57;;
12135;SDS011;6131;56.420;15.548;2023-02-23T09:12:49;11.80;;;6.80;;
12135;SDS011;6131;56.420;15.548;2023-02-23T09:15:15;12.67;;;6.97;;
12135;SDS011;6131;56.420;15.548;2023-02-23T09:17:41;10.97;;;7.40;;
12135;SDS011;6131;56.420;15.548;2023-02-23T09:20:10;10.80;;;7.67;;
12135;SDS011;6131;56.420;15.548;2023-02-23T09:22:38;12.17;;;7.33;;
12135;SDS011;6131;56.420;15.548;2023-02-23T09:25:04;10.47;;;6.80;;
12135;SDS011;6131;56.420;15.548;2023-02-23T09:27:30;13.33;;;7.70;;
12135;SDS011;6131;56.420;15.548;2023-02-23T09:29:56;9.87;;;6.77;;
12135;SDS011;6131;56.420;15.548;2023-02-23T09:32:22;8.87;;;6.87;;
12135;SDS011;6131;56.420;15.548;2023-02-23T09:34:48;12.03;;;7.40;;
12135;SDS011;6131;56.420;15.548;2023-02-23T09:37:16;10.67;;;7.20;;
12135;SDS011;6131;56.420;15.548;2023-02-23T09:39:42;12.93;;;6.90;;
12135;SDS011;6131;56.420;15.548;2023-02-23T09:42:13;13.47;;;7.10;;
12135;SDS011;6131;56.420;15.548;2023-02-23T09:49:56;10.70;;;6.47;;
12135;SDS011;6131;56.420;15.548;2023-02-23T09:52:24;11.13;;;6.80;;
12135;SDS011;6131;56.420;15.548;2023-02-23T09:54:51;12.73;;;7.80;;
12135;SDS011;6131;56.420;15.548;2023-02-23T09:57:17;16.17;;;7.20;;
12135;SDS011;6131;56.420;15.548;2023-02-23T09:59:44;14.43;;;6.87;;
12135;SDS011;6131;56.420;15.548;2023-02-23T10:04:49;11.77;;;7.17;;
12135;SDS011;6131;56.420;15.548;2023-02-23T10:15:02;11.30;;;6.70;;
12135;SDS011;6131;56.420;15.548;2023-02-23T10:20:21;13.13;;;6.80;;
12135;SDS011;6131;56.420;15.548;2023-02-23T10:22:50;13.33;;;6.60;;
12135;SDS011;6131;56.420;15.548;2023-02-23T10:25:23;12.20;;;7.00;;
12135;SDS011;6131;56.420;15.548;2023-02-23T10:27:50;10.77;;;6.90;;
12135;SDS011;6131;56.420;15.548;2023-02-23T10:30:27;11.53;;;6.33;;
12135;SDS011;6131;56.420;15.548;2023-02-23T10:33:12;11.97;;;7.17;;
12135;SDS011;6131;56.420;15.548;2023-02-23T10:35:41;12.70;;;6.80;;
12135;SDS011;6131;56.420;15.548;2023-02-23T10:38:07;14.10;;;6.87;;
12135;SDS011;6131;56.420;15.548;2023-02-23T10:40:38;12.03;;;6.93;;
12135;SDS011;6131;56.420;15.548;2023-02-23T10:43:05;10.50;;;6.53;;
12135;SDS011;6131;56.420;15.548;2023-02-23T10:45:33;14.30;;;7.73;;
12135;SDS011;6131;56.420;15.548;2023-02-23T10:48:04;12.33;;;6.03;;
12135;SDS011;6131;56.420;15.548;2023-02-23T10:50:31;11.70;;;6.73;;
12135;SDS011;6131;56.420;15.548;2023-02-23T10:53:10;11.03;;;7.00;;
12135;SDS011;6131;56.420;15.548;2023-02-23T10:55:40;9.77;;;6.50;;
12135;SDS011;6131;56.420;15.548;2023-02-23T11:00:49;14.47;;;6.83;;
12135;SDS011;6131;56.420;15.548;2023-02-23T11:03:48;12.97;;;7.23;;
12135;SDS011;6131;56.420;15.548;2023-02-23T11:06:27;10.20;;;6.33;;
12135;SDS011;6131;56.420;15.548;2023-02-23T11:08:54;13.57;;;6.57;;
12135;SDS011;6131;56.420;15.548;2023-02-23T11:11:24;12.03;;;6.27;;
12135;SDS011;6131;56.420;15.548;2023-02-23T11:13:52;13.37;;;6.67;;
12135;SDS011;6131;56.420;15.548;2023-02-23T11:16:20;9.37;;;6.40;;
12135;SDS011;6131;56.420;15.548;2023-02-23T11:23:52;9.83;;;6.33;;
12135;SDS011;6131;56.420;15.548;2023-02-23T11:26:20;12.00;;;6.33;;
12135;SDS011;6131;56.420;15.548;2023-02-23T11:28:49;11.77;;;6.60;;
12135;SDS011;6131;56.420;15.548;2023-02-23T11:31:17;8.93;;;6.33;;
12135;SDS011;6131;56.420;15.548;2023-02-23T11:33:44;12.87;;;6.63;;
12135;SDS011;6131;56.420;15.548;2023-02-23T11:36:30;12.20;;;6.60;;
12135;SDS011;6131;56.420;15.548;2023-02-23T11:39:14;11.50;;;6.93;;
12135;SDS011;6131;56.420;15.548;2023-02-23T11:41:43;12.50;;;7.07;;
12135;SDS011;6131;56.420;15.548;2023-02-23T11:44:19;13.90;;;7.10;;
12135;SDS011;6131;56.420;15.548;2023-02-23T11:46:46;12.63;;;6.67;;
12135;SDS011;6131;56.420;15.548;2023-02-23T11:49:13;12.33;;;7.47;;
12135;SDS011;6131;56.420;15.548;2023-02-23T11:51:45;13.33;;;7.40;;
12135;SDS011;6131;56.420;15.548;2023-02-23T11:54:19;12.77;;;7.13;;
12135;SDS011;6131;56.420;15.548;2023-02-23T11:56:46;14.07;;;7.33;;
12135;SDS011;6131;56.420;15.548;2023-02-23T11:59:16;12.43;;;6.97;;
12135;SDS011;6131;56.420;15.548;2023-02-23T12:01:45;13.40;;;7.03;;
12135;SDS011;6131;56.420;15.548;2023-02-23T12:06:47;14.20;;;7.40;;
12135;SDS011;6131;56.420;15.548;2023-02-23T12:11:45;11.83;;;7.93;;
12135;SDS011;6131;56.420;15.548;2023-02-23T12:16:41;15.83;;;7.57;;
12135;SDS011;6131;56.420;15.548;2023-02-23T12:26:29;16.07;;;7.93;;
12135;SDS011;6131;56.420;15.548;2023-02-23T12:29:00;14.33;;;7.67;;
12135;SDS011;6131;56.420;15.548;2023-02-23T12:34:07;14.10;;;7.93;;
12135;SDS011;6131;56.420;15.548;2023-02-23T12:36:44;13.80;;;8.40;;
12135;SDS011;6131;56.420;15.548;2023-02-23T12:39:31;16.33;;;8.33;;
12135;SDS011;6131;56.420;15.548;2023-02-23T12:42:01;14.53;;;8.40;;
12135;SDS011;6131;56.420;15.548;2023-02-23T12:46:58;12.90;;;8.00;;
12135;SDS011;6131;56.420;15.548;2023-02-23T12:49:30;13.40;;;7.77;;
12135;SDS011;6131;56.420;15.548;2023-02-23T12:54:38;17.20;;;8.77;;
12135;SDS011;6131;56.420;15.548;2023-02-23T13:02:40;15.60;;;8.87;;
12135;SDS011;6131;56.420;15.548;2023-02-23T13:15:39;13.83;;;7.97;;
12135;SDS011;6131;56.420;15.548;2023-02-23T13:20:48;15.73;;;8.80;;
12135;SDS011;6131;56.420;15.548;2023-02-23T13:28:39;16.33;;;8.37;;
12135;SDS011;6131;56.420;15.548;2023-02-23T13:31:52;13.87;;;8.20;;
12135;SDS011;6131;56.420;15.548;2023-02-23T13:33:53;13.90;;;8.43;;
12135;SDS011;6131;56.420;15.548;2023-02-23T13:36:19;19.87;;;8.70;;
12135;SDS011;6131;56.420;15.548;2023-02-23T13:44:18;14.33;;;8.40;;
12135;SDS011;6131;56.420;15.548;2023-02-23T13:49:49;18.13;;;9.07;;
12135;SDS011;6131;56.420;15.548;2023-02-23T13:55:03;16.33;;;9.13;;
12135;SDS011;6131;56.420;15.548;2023-02-23T13:57:30;13.60;;;8.60;;
12135;SDS011;6131;56.420;15.548;2023-02-23T13:59:56;14.97;;;8.57;;
12135;SDS011;6131;56.420;15.548;2023-02-23T14:05:00;13.87;;;9.13;;
12135;SDS011;6131;56.420;15.548;2023-02-23T14:07:27;15.13;;;9.37;;
12135;SDS011;6131;56.420;15.548;2023-02-23T14:09:58;13.20;;;8.67;;
12135;SDS011;6131;56.420;15.548;2023-02-23T14:12:31;19.90;;;9.27;;
12135;SDS011;6131;56.420;15.548;2023-02-23T14:15:26;19.60;;;9.40;;
12135;SDS011;6131;56.420;15.548;2023-02-23T14:17:53;17.97;;;9.33;;
12135;SDS011;6131;56.420;15.548;2023-02-23T14:21:02;16.37;;;8.73;;
12135;SDS011;6131;56.420;15.548;2023-02-23T14:25:51;17.33;;;9.20;;
12135;SDS011;6131;56.420;15.548;2023-02-23T14:39:05;15.23;;;9.37;;
12135;SDS011;6131;56.420;15.548;2023-02-23T14:43:59;16.73;;;9.47;;
12135;SDS011;6131;56.420;15.548;2023-02-23T14:46:29;18.80;;;10.33;;
12135;SDS011;6131;56.420;15.548;2023-02-23T14:49:00;16.00;;;9.20;;
12135;SDS011;6131;56.420;15.548;2023-02-23T14:51:35;15.47;;;9.47;;
12135;SDS011;6131;56.420;15.548;2023-02-23T14:54:25;18.67;;;10.03;;
12135;SDS011;6131;56.420;15.548;2023-02-23T14:56:53;16.17;;;9.47;;
12135;SDS011;6131;56.420;15.548;2023-02-23T14:59:22;16.57;;;10.27;;
12135;SDS011;6131;56.420;15.548;2023-02-23T15:01:50;16.73;;;10.33;;
12135;SDS011;6131;56.420;15.548;2023-02-23T15:04:18;17.07;;;10.33;;
12135;SDS011;6131;56.420;15.548;2023-02-23T15:06:44;16.93;;;9.80;;
12135;SDS011;6131;56.420;15.548;2023-02-23T15:09:15;19.10;;;10.33;;
12135;SDS011;6131;56.420;15.548;2023-02-23T15:11:42;16.77;;;9.90;;
12135;SDS011;6131;56.420;15.548;2023-02-23T15:14:12;17.60;;;10.37;;
12135;SDS011;6131;56.420;15.548;2023-02-23T15:16:39;15.77;;;10.50;;
12135;SDS011;6131;56.420;15.548;2023-02-23T15:19:09;16.27;;;10.17;;
12135;SDS011;6131;56.420;15.548;2023-02-23T15:21:36;17.60;;;9.83;;
12135;SDS011;6131;56.420;15.548;2023-02-23T15:24:11;31.37;;;18.33;;
12135;SDS011;6131;56.420;15.548;2023-02-23T15:26:38;21.70;;;11.83;;
12135;SDS011;6131;56.420;15.548;2023-02-23T15:31:39;18.17;;;10.20;;
12135;SDS011;6131;56.420;15.548;2023-02-23T15:34:14;17.10;;;9.73;;
12135;SDS011;6131;56.420;15.548;2023-02-23T15:36:43;17.53;;;10.00;;
12135;SDS011;6131;56.420;15.548;2023-02-23T15:39:11;17.27;;;10.13;;
12135;SDS011;6131;56.420;15.548;2023-02-23T15:41:39;15.63;;;9.50;;
12135;SDS011;6131;56.420;15.548;2023-02-23T15:46:34;14.77;;;10.07;;
12135;SDS011;6131;56.420;15.548;2023-02-23T15:49:01;18.33;;;9.50;;
12135;SDS011;6131;56.420;15.548;2023-02-23T15:51:36;17.87;;;10.63;;
12135;SDS011;6131;56.420;15.548;2023-02-23T15:54:12;15.87;;;9.27;;
12135;SDS011;6131;56.420;15.548;2023-02-23T15:56:41;15.87;;;9.87;;
12135;SDS011;6131;56.420;15.548;2023-02-23T15:59:12;16.27;;;9.30;;
12135;SDS011;6131;56.420;15.548;2023-02-23T16:01:42;14.80;;;8.80;;
12135;SDS011;6131;56.420;15.548;2023-02-23T16:11:52;14.43;;;8.23;;
12135;SDS011;6131;56.420;15.548;2023-02-23T16:14:19;13.97;;;9.13;;
12135;SDS011;6131;56.420;15.548;2023-02-23T16:16:46;15.13;;;9.27;;
12135;SDS011;6131;56.420;15.548;2023-02-23T16:19:14;15.87;;;9.33;;
12135;SDS011;6131;56.420;15.548;2023-02-23T16:21:40;14.27;;;9.20;;
12135;SDS011;6131;56.420;15.548;2023-02-23T16:24:11;14.60;;;9.03;;
12135;SDS011;6131;56.420;15.548;2023-02-23T16:26:48;14.63;;;9.50;;
12135;SDS011;6131;56.420;15.548;2023-02-23T16:29:20;11.87;;;8.70;;
12135;SDS011;6131;56.420;15.548;2023-02-23T16:31:49;12.60;;;9.10;;
12135;SDS011;6131;56.420;15.548;2023-02-23T16:34:26;11.93;;;9.00;;
12135;SDS011;6131;56.420;15.548;2023-02-23T16:36:57;15.60;;;9.13;;
12135;SDS011;6131;56.420;15.548;2023-02-23T16:39:23;16.27;;;9.03;;
12135;SDS011;6131;56.420;15.548;2023-02-23T16:41:53;14.77;;;9.73;;
12135;SDS011;6131;56.420;15.548;2023-02-23T16:44:19;14.90;;;8.70;;
12135;SDS011;6131;56.420;15.548;2023-02-23T16:49:14;14.13;;;9.47;;
12135;SDS011;6131;56.420;15.548;2023-02-23T16:51:40;16.23;;;9.70;;
12135;SDS011;6131;56.420;15.548;2023-02-23T16:54:06;14.23;;;9.87;;
12135;SDS011;6131;56.420;15.548;2023-02-23T16:56:32;14.83;;;9.23;;
12135;SDS011;6131;56.420;15.548;2023-02-23T16:59:00;15.57;;;9.80;;
12135;SDS011;6131;56.420;15.548;2023-02-23T17:01:27;15.37;;;9.37;;
12135;SDS011;6131;56.420;15.548;2023-02-23T17:03:53;15.10;;;10.27;;
12135;SDS011;6131;56.420;15.548;2023-02-23T17:06:19;16.27;;;10.33;;
12135;SDS011;6131;56.420;15.548;2023-02-23T17:08:45;16.20;;;10.13;;
12135;SDS011;6131;56.420;15.548;2023-02-23T17:11:11;14.73;;;9.63;;
12135;SDS011;6131;56.420;15.548;2023-02-23T17:13:38;16.73;;;9.50;;
12135;SDS011;6131;56.420;15.548;2023-02-23T17:16:05;15.87;;;9.27;;
12135;SDS011;6131;56.420;15.548;2023-02-23T17:18:33;14.80;;;10.63;;
12135;SDS011;6131;56.420;15.548;2023-02-23T17:21:01;15.43;;;10.37;;
12135;SDS011;6131;56.420;15.548;2023-02-23T17:23:28;17.20;;;11.37;;
12135;SDS011;6131;56.420;15.548;2023-02-23T17:26:03;15.47;;;11.03;;
12135;SDS011;6131;56.420;15.548;2023-02-23T17:28:29;16.30;;;10.37;;
12135;SDS011;6131;56.420;15.548;2023-02-23T17:30:55;13.93;;;10.17;;
12135;SDS011;6131;56.420;15.548;2023-02-23T17:33:21;16.87;;;10.43;;
12135;SDS011;6131;56.420;15.548;2023-02-23T17:35:47;16.43;;;10.47;;
12135;SDS011;6131;56.420;15.548;2023-02-23T17:38:13;18.60;;;11.57;;